Time;durP1;ratioP1;P1;durP2;ratioP2;P2;SDS_P1;SDS_P2;PMS_P1;PMS_P2;Temp;Humidity;BMP_temperature;BMP_pressure;BME280_temperature;BME280_humidity;BME280_pressure;Samples;Min_cycle;Max_cycle;Signal;HPM_P1;HPM_P2
2023/09/05 00:00:02;;;;;;;10.07;6.93;;;19.30;99.90;;;;;;5032815;28;21008;-57
2023/09/05 00:02:28;;;;;;;7.63;6.93;;;19.30;99.90;;;;;;5032419;28;20194;-58
2023/09/05 00:04:55;;;;;;;6.63;6.03;;;19.30;99.90;;;;;;5034557;28;20888;-57
2023/09/05 00:07:20;;;;;;;6.57;4.83;;;19.20;99.90;;;;;;5017169;28;20190;-57
2023/09/05 00:09:46;;;;;;;6.70;4.83;;;19.20;99.90;;;;;;5031697;28;20217;-57
2023/09/05 00:12:11;;;;;;;6.57;5.13;;;19.20;99.90;;;;;;5032880;28;20336;-57
2023/09/05 00:14:37;;;;;;;5.30;4.67;;;19.10;99.90;;;;;;5030999;28;20279;-58
2023/09/05 00:17:03;;;;;;;5.93;5.43;;;19.10;99.90;;;;;;5038481;28;20228;-59
2023/09/05 00:19:28;;;;;;;5.83;5.33;;;19.10;99.90;;;;;;5034923;28;20225;-58
2023/09/05 00:21:54;;;;;;;7.90;4.43;;;19.00;99.90;;;;;;5034533;28;20224;-58
2023/09/05 00:24:28;;;;;;;5.03;4.17;;;19.00;99.90;;;;;;5026731;28;20202;-57
2023/09/05 00:26:55;;;;;;;5.63;4.33;;;19.00;99.90;;;;;;5031070;28;20206;-58
2023/09/05 00:29:23;;;;;;;6.80;4.50;;;19.00;99.90;;;;;;5010840;28;20255;-57
2023/09/05 00:31:49;;;;;;;5.13;4.63;;;19.10;99.90;;;;;;5031013;28;20258;-57
2023/09/05 00:34:14;;;;;;;4.33;3.93;;;19.10;99.90;;;;;;5036661;28;20245;-57
2023/09/05 00:36:41;;;;;;;4.27;3.90;;;19.10;99.90;;;;;;5042049;28;20890;-57
2023/09/05 00:39:06;;;;;;;4.57;4.13;;;19.10;99.90;;;;;;5039552;28;20828;-57
2023/09/05 00:41:32;;;;;;;3.93;3.53;;;19.10;99.90;;;;;;5028125;28;20669;-57
2023/09/05 00:43:59;;;;;;;5.23;4.03;;;19.10;99.90;;;;;;5031598;28;20207;-57
2023/09/05 00:46:25;;;;;;;4.13;3.83;;;19.10;99.90;;;;;;5026377;28;20307;-57
2023/09/05 00:48:52;;;;;;;4.00;3.63;;;19.10;99.90;;;;;;5031616;28;20216;-65
2023/09/05 00:51:20;;;;;;;4.10;3.73;;;19.10;99.90;;;;;;5033306;28;20236;-60
2023/09/05 00:53:45;;;;;;;3.93;3.63;;;19.10;99.90;;;;;;5031554;28;20297;-64
2023/09/05 00:56:11;;;;;;;4.60;3.77;;;19.10;99.90;;;;;;5035692;28;20325;-56
2023/09/05 00:58:37;;;;;;;4.30;3.60;;;19.10;99.90;;;;;;5032458;28;20223;-57
2023/09/05 01:01:02;;;;;;;5.50;3.53;;;19.10;99.90;;;;;;5028483;28;20950;-57
2023/09/05 01:03:28;;;;;;;3.70;3.40;;;19.10;99.90;;;;;;5028376;28;20232;-57
2023/09/05 01:05:59;;;;;;;4.23;3.90;;;19.00;99.90;;;;;;5036995;28;20213;-56
2023/09/05 01:11:47;;;;;;;4.50;4.10;;;19.10;99.90;;;;;;5036453;28;20280;-57
2023/09/05 01:14:14;;;;;;;4.97;3.80;;;19.00;99.90;;;;;;5034891;28;20623;-57
2023/09/05 01:16:44;;;;;;;4.23;3.37;;;19.00;99.90;;;;;;5040982;28;20202;-57
2023/09/05 01:19:12;;;;;;;4.40;3.97;;;19.10;99.90;;;;;;5033762;28;20294;-57
2023/09/05 01:21:45;;;;;;;4.37;3.97;;;19.00;99.90;;;;;;5035268;28;20296;-57
2023/09/05 01:24:17;;;;;;;5.73;4.03;;;19.00;99.90;;;;;;5035729;28;20212;-58
2023/09/05 01:26:43;;;;;;;4.20;3.80;;;18.90;99.90;;;;;;5036629;28;20329;-55
2023/09/05 01:29:11;;;;;;;4.67;3.97;;;18.90;99.90;;;;;;5030270;28;20210;-57
2023/09/05 01:31:37;;;;;;;5.00;4.60;;;18.90;99.90;;;;;;5036460;28;20662;-57
2023/09/05 01:34:03;;;;;;;3.93;3.57;;;18.90;99.90;;;;;;5036869;28;20210;-58
2023/09/05 01:36:28;;;;;;;4.97;3.97;;;18.90;99.90;;;;;;5040145;28;20209;-58
2023/09/05 01:38:54;;;;;;;5.07;4.40;;;18.90;99.90;;;;;;5033156;28;20306;-57
2023/09/05 01:41:19;;;;;;;4.57;4.27;;;18.90;99.90;;;;;;5036736;28;20716;-57
2023/09/05 01:43:44;;;;;;;4.57;4.17;;;18.90;99.90;;;;;;5037083;28;20225;-56
2023/09/05 01:46:10;;;;;;;4.33;4.03;;;18.80;99.90;;;;;;5036584;28;20306;-56
2023/09/05 01:48:36;;;;;;;6.53;3.67;;;18.80;99.90;;;;;;5036223;28;20236;-56
2023/09/05 01:51:01;;;;;;;5.33;4.27;;;18.90;99.90;;;;;;5035434;28;20232;-56
2023/09/05 01:53:27;;;;;;;3.77;3.47;;;18.90;99.90;;;;;;5017920;28;20205;-56
2023/09/05 01:55:52;;;;;;;5.63;4.10;;;18.90;99.90;;;;;;5033944;28;20204;-56
2023/09/05 01:58:18;;;;;;;4.47;4.17;;;18.90;99.90;;;;;;5029113;28;20327;-56
2023/09/05 02:00:43;;;;;;;3.90;3.40;;;18.90;99.90;;;;;;5032218;28;20213;-56
2023/09/05 02:03:10;;;;;;;3.87;3.63;;;18.90;99.90;;;;;;5035335;28;20234;-56
2023/09/05 02:05:35;;;;;;;4.70;4.37;;;18.90;99.90;;;;;;5030374;28;20231;-57
2023/09/05 02:08:01;;;;;;;4.30;3.90;;;18.90;99.90;;;;;;5032030;28;20287;-57
2023/09/05 02:10:26;;;;;;;4.87;3.93;;;18.90;99.90;;;;;;5038750;28;20278;-63
2023/09/05 02:12:52;;;;;;;5.23;3.90;;;18.80;99.90;;;;;;5036438;28;20205;-61
2023/09/05 02:15:17;;;;;;;4.17;3.70;;;18.80;99.90;;;;;;5021401;28;20423;-57
2023/09/05 02:17:43;;;;;;;4.37;4.00;;;18.70;99.90;;;;;;5034684;28;20203;-58
2023/09/05 02:20:09;;;;;;;4.03;3.67;;;18.70;99.90;;;;;;5031274;28;20229;-58
2023/09/05 02:22:34;;;;;;;4.17;3.40;;;18.70;99.90;;;;;;5033572;28;20198;-57
2023/09/05 02:25:00;;;;;;;5.47;3.80;;;18.70;99.90;;;;;;5043242;28;20265;-57
2023/09/05 02:27:26;;;;;;;3.57;3.23;;;18.70;99.90;;;;;;5038633;28;20208;-57
2023/09/05 02:29:56;;;;;;;3.67;3.27;;;18.70;99.90;;;;;;5039281;28;20205;-57
2023/09/05 02:32:22;;;;;;;4.27;3.97;;;18.70;99.90;;;;;;5043654;28;20210;-57
2023/09/05 02:34:52;;;;;;;4.00;3.70;;;18.80;99.90;;;;;;5035399;28;20213;-57
2023/09/05 02:37:18;;;;;;;3.63;3.33;;;18.80;99.90;;;;;;5020877;28;20191;-56
2023/09/05 02:39:43;;;;;;;3.60;3.30;;;18.70;99.90;;;;;;5022559;28;20746;-57
2023/09/05 02:42:09;;;;;;;3.97;3.67;;;18.70;99.90;;;;;;5042448;28;20287;-57
2023/09/05 02:44:34;;;;;;;3.50;3.20;;;18.70;99.90;;;;;;5043643;28;20229;-57
2023/09/05 02:47:00;;;;;;;3.73;3.43;;;18.70;99.90;;;;;;5029650;28;20229;-58
2023/09/05 02:49:25;;;;;;;3.90;3.60;;;18.70;99.90;;;;;;5036827;28;20293;-58
2023/09/05 02:51:51;;;;;;;5.43;4.00;;;18.70;99.90;;;;;;5031433;28;20224;-58
2023/09/05 02:54:16;;;;;;;3.60;3.30;;;18.60;99.90;;;;;;5034281;28;20672;-58
2023/09/05 02:56:42;;;;;;;4.03;3.63;;;18.60;99.90;;;;;;5038967;28;20293;-58
2023/09/05 02:59:07;;;;;;;3.47;3.23;;;18.60;99.90;;;;;;5041365;28;20224;-58
2023/09/05 03:01:33;;;;;;;5.07;3.20;;;18.60;99.90;;;;;;5031111;28;20302;-58
2023/09/05 03:03:58;;;;;;;4.40;3.77;;;18.60;99.90;;;;;;5035725;28;20246;-57
2023/09/05 03:06:24;;;;;;;4.00;3.70;;;18.60;99.90;;;;;;5035343;28;20279;-57
2023/09/05 03:08:50;;;;;;;4.53;3.10;;;18.50;99.90;;;;;;5040308;28;20211;-56
2023/09/05 03:11:19;;;;;;;3.07;2.87;;;18.60;99.90;;;;;;5036281;28;20205;-56
2023/09/05 03:13:46;;;;;;;4.00;3.70;;;18.60;99.90;;;;;;5034618;28;21095;-56
2023/09/05 03:16:12;;;;;;;3.10;2.90;;;18.60;99.90;;;;;;5045288;28;20196;-56
2023/09/05 03:18:38;;;;;;;3.70;3.40;;;18.60;99.90;;;;;;5041747;28;20219;-56
2023/09/05 03:21:03;;;;;;;3.63;2.67;;;18.50;99.90;;;;;;5034633;28;20203;-56
2023/09/05 03:23:29;;;;;;;3.23;3.00;;;18.60;99.90;;;;;;5039667;28;20262;-57
2023/09/05 03:25:56;;;;;;;3.20;2.90;;;18.50;99.90;;;;;;5035259;28;20201;-56
2023/09/05 03:28:22;;;;;;;3.40;3.10;;;18.60;99.90;;;;;;5036133;28;20205;-56
2023/09/05 03:30:48;;;;;;;5.67;3.47;;;18.50;99.90;;;;;;5038377;28;20211;-56
2023/09/05 03:33:14;;;;;;;3.20;3.00;;;18.50;99.90;;;;;;5041714;28;20301;-56
2023/09/05 03:35:40;;;;;;;5.50;3.90;;;18.50;99.90;;;;;;5040041;28;20277;-56
2023/09/05 03:38:06;;;;;;;4.33;3.20;;;18.50;99.90;;;;;;5038980;28;20316;-56
2023/09/05 03:40:32;;;;;;;4.07;3.77;;;18.50;99.90;;;;;;5039108;28;20309;-56
2023/09/05 03:42:57;;;;;;;3.07;2.87;;;18.50;99.90;;;;;;5040044;28;20194;-56
2023/09/05 03:45:23;;;;;;;4.07;3.73;;;18.50;99.90;;;;;;5038171;28;20202;-57
2023/09/05 03:47:49;;;;;;;4.33;2.93;;;18.50;99.90;;;;;;5035941;28;20622;-57
2023/09/05 03:50:16;;;;;;;4.83;3.37;;;18.50;99.90;;;;;;5034454;28;20220;-57
2023/09/05 03:52:42;;;;;;;3.77;3.47;;;18.40;99.90;;;;;;5020511;28;20672;-57
2023/09/05 03:55:08;;;;;;;3.93;3.63;;;18.40;99.90;;;;;;5042619;28;20298;-57
2023/09/05 03:57:34;;;;;;;3.47;3.17;;;18.40;99.90;;;;;;5032713;28;20613;-57
2023/09/05 03:59:59;;;;;;;6.37;3.70;;;18.40;99.90;;;;;;5038098;28;20261;-57
2023/09/05 04:02:25;;;;;;;4.83;4.30;;;18.40;99.90;;;;;;5037003;28;20216;-56
2023/09/05 04:04:55;;;;;;;3.70;3.33;;;18.30;99.90;;;;;;5043045;28;21278;-57
2023/09/05 04:07:21;;;;;;;3.67;3.37;;;18.30;99.90;;;;;;5027671;28;20203;-57
2023/09/05 04:09:47;;;;;;;3.83;3.53;;;18.30;99.90;;;;;;5039789;28;20631;-61
2023/09/05 04:12:14;;;;;;;3.50;3.20;;;18.30;99.90;;;;;;5038159;28;20215;-60
2023/09/05 04:14:39;;;;;;;5.33;3.83;;;18.30;99.90;;;;;;5038011;28;20209;-56
2023/09/05 04:17:04;;;;;;;4.13;3.53;;;18.20;99.90;;;;;;5035895;28;20205;-57
2023/09/05 04:19:30;;;;;;;4.13;3.73;;;18.20;99.90;;;;;;5036446;28;20212;-57
2023/09/05 04:21:55;;;;;;;4.20;3.80;;;18.20;99.90;;;;;;5043854;28;20314;-57
2023/09/05 04:24:21;;;;;;;6.90;4.40;;;18.20;99.90;;;;;;5032231;28;20221;-56
2023/09/05 04:26:46;;;;;;;4.17;3.77;;;18.20;99.90;;;;;;5033498;28;20222;-58
2023/09/05 04:29:12;;;;;;;4.17;3.73;;;18.20;99.90;;;;;;5035355;28;20237;-57
2023/09/05 04:31:38;;;;;;;4.13;3.80;;;18.20;99.90;;;;;;5039867;28;20222;-57
2023/09/05 04:34:04;;;;;;;6.93;3.77;;;18.20;99.90;;;;;;5017985;28;20208;-57
2023/09/05 04:36:29;;;;;;;4.07;3.77;;;18.20;99.90;;;;;;5037764;28;20202;-57
2023/09/05 04:38:54;;;;;;;4.63;4.17;;;18.20;99.90;;;;;;5039727;28;20220;-58
2023/09/05 04:41:20;;;;;;;4.33;3.93;;;18.10;99.90;;;;;;5035263;28;20210;-60
2023/09/05 04:43:46;;;;;;;5.77;4.07;;;18.10;99.90;;;;;;5039951;28;20211;-58
2023/09/05 04:46:12;;;;;;;3.67;3.17;;;18.00;99.90;;;;;;5028090;28;20206;-58
2023/09/05 04:48:38;;;;;;;4.80;4.40;;;18.00;99.90;;;;;;5033660;28;20232;-58
2023/09/05 04:51:04;;;;;;;6.13;3.73;;;18.00;99.90;;;;;;5040122;28;20295;-58
2023/09/05 04:53:30;;;;;;;4.60;3.87;;;17.90;99.90;;;;;;5042209;28;20655;-58
2023/09/05 04:55:59;;;;;;;3.97;3.67;;;18.00;99.90;;;;;;5031437;28;20204;-57
2023/09/05 04:58:27;;;;;;;3.57;3.27;;;18.00;99.90;;;;;;5021637;28;20398;-59
2023/09/05 05:00:56;;;;;;;4.43;4.03;;;18.00;99.90;;;;;;5034155;28;20201;-57
2023/09/05 05:03:23;;;;;;;5.10;4.17;;;18.00;99.90;;;;;;5016907;28;20204;-56
2023/09/05 05:05:49;;;;;;;4.37;3.97;;;18.00;99.90;;;;;;5036580;28;20421;-56
2023/09/05 05:08:15;;;;;;;6.07;3.97;;;18.00;99.90;;;;;;5027601;28;20207;-56
2023/09/05 05:10:40;;;;;;;3.93;3.63;;;18.10;99.90;;;;;;5043374;28;20265;-56
2023/09/05 05:13:05;;;;;;;4.30;3.60;;;18.20;99.90;;;;;;5033849;28;20213;-56
2023/09/05 05:15:31;;;;;;;4.10;3.67;;;18.20;99.90;;;;;;5035218;28;20225;-56
2023/09/05 05:17:56;;;;;;;5.93;3.67;;;18.20;99.90;;;;;;5035166;28;20675;-56
2023/09/05 05:20:22;;;;;;;4.40;4.00;;;18.20;99.90;;;;;;5030798;28;20229;-56
2023/09/05 05:22:47;;;;;;;5.37;4.77;;;18.20;99.90;;;;;;5038026;28;20609;-56
2023/09/05 05:25:13;;;;;;;4.73;4.17;;;18.20;99.90;;;;;;5039031;28;20716;-56
2023/09/05 05:27:39;;;;;;;6.37;4.37;;;18.10;99.90;;;;;;5033301;28;20266;-58
2023/09/05 05:30:05;;;;;;;16.97;7.77;;;18.10;99.90;;;;;;5032008;28;20194;-56
2023/09/05 05:32:31;;;;;;;9.53;4.63;;;18.20;99.90;;;;;;5034581;28;20539;-56
2023/09/05 05:34:56;;;;;;;6.37;4.50;;;18.10;99.90;;;;;;5031180;28;20211;-56
2023/09/05 05:37:22;;;;;;;6.03;4.10;;;18.00;99.90;;;;;;5034562;28;20227;-56
2023/09/05 05:39:47;;;;;;;6.53;4.33;;;18.00;99.90;;;;;;5025203;28;20297;-56
2023/09/05 05:42:13;;;;;;;4.33;3.90;;;18.00;99.90;;;;;;5032434;28;20204;-57
2023/09/05 05:44:39;;;;;;;4.80;4.40;;;18.10;99.90;;;;;;5033623;28;20213;-57
2023/09/05 05:47:05;;;;;;;5.90;4.00;;;18.10;99.90;;;;;;5016608;28;20324;-57
2023/09/05 05:49:31;;;;;;;9.07;5.17;;;18.20;99.90;;;;;;5037643;28;20212;-56
2023/09/05 05:51:57;;;;;;;4.60;3.93;;;18.20;99.90;;;;;;5026355;28;20255;-56
2023/09/05 05:54:23;;;;;;;9.03;4.50;;;18.20;99.90;;;;;;5033565;28;20196;-56
2023/09/05 05:56:50;;;;;;;6.20;3.63;;;18.20;99.90;;;;;;5018213;28;20833;-56
2023/09/05 05:59:16;;;;;;;5.67;4.57;;;18.30;99.90;;;;;;5034942;28;20216;-56
2023/09/05 06:01:41;;;;;;;5.23;4.40;;;18.30;99.90;;;;;;5044512;28;20263;-56
2023/09/05 06:04:07;;;;;;;7.60;4.20;;;18.40;99.90;;;;;;5041577;28;21173;-56
2023/09/05 06:06:33;;;;;;;4.60;4.20;;;18.40;99.90;;;;;;5039665;28;20202;-57
2023/09/05 06:08:59;;;;;;;4.27;3.87;;;18.40;99.90;;;;;;5041786;28;20205;-57
2023/09/05 06:11:24;;;;;;;4.87;4.20;;;18.40;99.90;;;;;;5045847;28;20202;-56
2023/09/05 06:13:52;;;;;;;9.90;4.20;;;18.50;99.90;;;;;;5037836;28;20210;-56
2023/09/05 06:16:18;;;;;;;6.63;4.20;;;18.50;99.90;;;;;;5043187;28;20261;-56
2023/09/05 06:18:43;;;;;;;4.53;3.80;;;18.50;99.90;;;;;;5041757;28;20232;-56
2023/09/05 06:21:09;;;;;;;4.77;3.73;;;18.50;99.90;;;;;;5043442;28;20813;-56
2023/09/05 06:23:35;;;;;;;4.30;4.00;;;18.60;99.90;;;;;;5037383;28;20240;-56
2023/09/05 06:26:01;;;;;;;4.17;3.77;;;18.70;99.90;;;;;;5041527;28;20209;-57
2023/09/05 06:28:26;;;;;;;4.03;3.63;;;18.70;99.90;;;;;;5043370;28;20247;-56
2023/09/05 06:30:56;;;;;;;4.93;3.50;;;18.70;99.90;;;;;;5036978;28;20585;-56
2023/09/05 06:33:22;;;;;;;5.80;3.87;;;18.90;99.90;;;;;;5043432;28;20846;-56
2023/09/05 06:35:47;;;;;;;6.80;4.13;;;18.90;99.90;;;;;;5036771;28;20226;-62
2023/09/05 06:38:14;;;;;;;5.10;4.00;;;19.00;99.90;;;;;;5041642;28;20186;-59
2023/09/05 06:40:40;;;;;;;4.63;4.00;;;19.20;99.90;;;;;;5042979;28;20195;-60
2023/09/05 06:43:07;;;;;;;4.37;3.87;;;19.20;99.90;;;;;;5041371;28;20270;-55
2023/09/05 06:45:32;;;;;;;3.53;3.23;;;19.20;99.90;;;;;;5033433;28;20197;-56
2023/09/05 06:47:58;;;;;;;3.67;3.37;;;19.40;99.90;;;;;;5040629;28;20301;-56
2023/09/05 06:50:24;;;;;;;5.33;3.03;;;19.30;99.90;;;;;;5038245;28;20199;-55
2023/09/05 06:52:49;;;;;;;4.73;3.13;;;19.40;99.90;;;;;;5037416;28;20216;-55
2023/09/05 06:55:15;;;;;;;4.90;3.90;;;19.40;99.90;;;;;;5042390;28;20313;-56
2023/09/05 06:57:40;;;;;;;4.30;3.90;;;19.50;99.90;;;;;;5039168;28;20265;-56
2023/09/05 07:00:07;;;;;;;6.30;3.83;;;19.50;99.90;;;;;;5040762;28;20228;-56
2023/09/05 07:02:32;;;;;;;3.60;3.30;;;19.50;99.90;;;;;;5042124;28;20262;-63
2023/09/05 07:04:58;;;;;;;3.47;3.10;;;19.60;99.90;;;;;;5035132;28;20217;-60
2023/09/05 07:07:25;;;;;;;5.03;4.23;;;19.70;99.90;;;;;;5036652;28;20202;-60
2023/09/05 07:09:51;;;;;;;4.90;3.93;;;19.80;99.90;;;;;;5038276;28;20252;-58
2023/09/05 07:12:16;;;;;;;3.80;3.10;;;19.90;99.90;;;;;;5036641;28;20206;-59
2023/09/05 07:14:45;;;;;;;3.83;3.53;;;20.00;99.90;;;;;;5016585;28;20203;-59
2023/09/05 07:17:11;;;;;;;4.20;3.07;;;20.00;99.90;;;;;;5023148;28;20259;-60
2023/09/05 07:19:37;;;;;;;4.03;3.43;;;20.00;99.90;;;;;;5031236;28;20222;-65
2023/09/05 07:22:03;;;;;;;5.63;3.37;;;20.10;99.90;;;;;;5033298;28;20201;-55
2023/09/05 07:24:29;;;;;;;4.03;3.60;;;20.20;99.90;;;;;;5043198;28;20195;-55
2023/09/05 07:26:54;;;;;;;3.03;2.73;;;20.20;99.90;;;;;;5040229;28;20205;-57
2023/09/05 07:29:20;;;;;;;3.47;2.60;;;20.30;99.90;;;;;;5038015;28;20233;-56
2023/09/05 07:31:45;;;;;;;5.47;3.50;;;20.40;99.90;;;;;;5042050;28;20202;-57
2023/09/05 07:34:11;;;;;;;3.67;3.00;;;20.40;99.90;;;;;;5019494;28;20197;-56
2023/09/05 07:36:36;;;;;;;3.73;2.90;;;20.40;99.90;;;;;;5039389;28;20260;-56
2023/09/05 07:39:04;;;;;;;4.07;3.67;;;20.50;99.90;;;;;;5037392;28;20751;-56
2023/09/05 07:41:31;;;;;;;3.67;3.37;;;20.60;99.90;;;;;;5036285;28;20191;-58
2023/09/05 07:43:56;;;;;;;5.07;2.73;;;20.60;99.90;;;;;;5037221;28;20377;-58
2023/09/05 07:46:22;;;;;;;9.43;3.40;;;20.50;99.90;;;;;;5032962;28;20314;-58
2023/09/05 07:48:48;;;;;;;3.20;2.70;;;20.50;99.90;;;;;;5033732;28;20234;-58
2023/09/05 07:51:14;;;;;;;3.03;2.73;;;20.60;99.90;;;;;;5034674;28;20287;-58
2023/09/05 07:53:46;;;;;;;3.93;3.53;;;20.70;99.90;;;;;;5036667;28;20202;-59
2023/09/05 07:56:12;;;;;;;6.27;3.43;;;20.80;99.90;;;;;;5036985;28;20243;-56
2023/09/05 07:58:37;;;;;;;3.13;2.83;;;20.80;99.90;;;;;;5041790;28;20217;-58
2023/09/05 08:01:03;;;;;;;5.30;2.90;;;20.80;99.90;;;;;;5042040;28;20201;-55
2023/09/05 08:03:28;;;;;;;5.87;3.00;;;20.70;99.90;;;;;;5035068;28;20206;-56
2023/09/05 08:05:54;;;;;;;3.40;3.10;;;20.70;99.90;;;;;;5038301;28;20205;-57
2023/09/05 08:08:20;;;;;;;3.40;2.63;;;20.70;99.90;;;;;;5036934;28;20667;-57
2023/09/05 08:10:46;;;;;;;3.37;3.07;;;20.90;99.90;;;;;;5036940;28;20214;-56
2023/09/05 08:13:16;;;;;;;4.00;3.37;;;21.00;99.90;;;;;;5043318;28;20197;-55
2023/09/05 08:15:44;;;;;;;4.07;2.70;;;21.00;99.90;;;;;;5031799;28;20209;-56
2023/09/05 08:18:11;;;;;;;3.63;3.23;;;21.00;99.90;;;;;;5036891;28;20289;-56
2023/09/05 08:20:39;;;;;;;4.70;2.97;;;21.10;99.90;;;;;;5016277;28;20865;-56
2023/09/05 08:23:05;;;;;;;3.10;2.87;;;21.10;99.90;;;;;;5018452;28;20279;-56
2023/09/05 08:25:30;;;;;;;3.67;3.47;;;21.20;99.90;;;;;;5020907;28;20210;-58
2023/09/05 08:27:56;;;;;;;3.93;2.53;;;21.30;99.90;;;;;;5040057;28;20221;-58
2023/09/05 08:30:24;;;;;;;2.73;2.57;;;21.40;99.90;;;;;;5030750;28;20195;-58
2023/09/05 08:32:50;;;;;;;2.90;2.70;;;21.50;99.90;;;;;;5036177;28;20211;-58
2023/09/05 08:35:15;;;;;;;5.13;3.50;;;21.50;99.90;;;;;;5037878;28;20292;-57
2023/09/05 08:37:41;;;;;;;3.43;2.53;;;21.60;99.90;;;;;;5039322;28;20242;-54
2023/09/05 08:40:08;;;;;;;4.10;2.70;;;21.70;99.90;;;;;;5038355;28;20228;-57
2023/09/05 08:42:36;;;;;;;3.97;2.77;;;21.70;99.90;;;;;;5039877;28;20225;-58
2023/09/05 08:45:03;;;;;;;5.13;3.07;;;21.80;99.90;;;;;;5034808;28;20201;-59
2023/09/05 08:47:30;;;;;;;4.32;3.13;;;21.90;99.90;;;;;;5037587;28;20257;-58
2023/09/05 08:49:59;;;;;;;2.83;2.53;;;21.90;99.90;;;;;;5018611;28;20199;-58
2023/09/05 08:52:30;;;;;;;2.50;2.30;;;22.00;99.90;;;;;;5038089;28;20201;-58
2023/09/05 08:54:57;;;;;;;3.03;2.47;;;22.00;99.90;;;;;;5035407;28;21012;-54
2023/09/05 08:57:24;;;;;;;3.30;2.97;;;22.00;99.90;;;;;;5035467;28;20298;-56
2023/09/05 08:59:50;;;;;;;2.73;2.00;;;22.20;99.90;;;;;;5038246;28;20215;-55
2023/09/05 09:02:16;;;;;;;5.07;2.25;;;22.30;99.90;;;;;;5033559;28;20211;-55
2023/09/05 09:04:52;;;;;;;2.97;2.63;;;22.30;99.90;;;;;;5043543;28;20198;-55
2023/09/05 09:07:18;;;;;;;4.90;3.87;;;22.30;99.90;;;;;;5032347;28;20281;-60
2023/09/05 09:09:43;;;;;;;11.60;2.63;;;22.40;99.90;;;;;;5036626;28;20361;-59
2023/09/05 09:12:09;;;;;;;3.17;2.88;;;22.50;99.90;;;;;;5036829;28;20204;-57
2023/09/05 09:14:35;;;;;;;8.80;3.75;;;22.60;99.90;;;;;;5033017;28;20537;-56
2023/09/05 09:17:05;;;;;;;2.53;2.33;;;22.60;99.90;;;;;;5033937;28;20210;-55
2023/09/05 09:19:31;;;;;;;5.17;3.60;;;22.70;99.90;;;;;;5033597;28;20909;-56
2023/09/05 09:22:02;;;;;;;3.87;3.03;;;22.90;99.90;;;;;;5029364;28;20225;-56
2023/09/05 09:24:35;;;;;;;9.23;3.80;;;22.90;99.90;;;;;;5040648;28;20742;-57
2023/09/05 09:27:03;;;;;;;8.18;3.65;;;23.00;99.90;;;;;;5035413;28;20213;-56
2023/09/05 09:29:30;;;;;;;7.40;3.67;;;23.00;99.90;;;;;;5037163;28;20195;-57
2023/09/05 09:32:05;;;;;;;3.38;2.13;;;23.00;99.90;;;;;;5039965;28;20199;-56
2023/09/05 09:34:34;;;;;;;6.07;4.25;;;23.20;99.90;;;;;;5040285;28;20236;-63
2023/09/05 09:37:00;;;;;;;8.60;4.65;;;23.30;99.90;;;;;;5018566;28;20238;-65
2023/09/05 09:39:29;;;;;;;7.45;3.80;;;23.30;99.90;;;;;;5021906;28;20659;-64
2023/09/05 09:41:58;;;;;;;3.17;2.20;;;23.40;99.90;;;;;;5024761;28;20217;-67
2023/09/05 09:44:29;;;;;;;4.00;2.25;;;23.50;99.90;;;;;;5035260;28;20209;-59
2023/09/05 09:46:57;;;;;;;2.03;1.70;;;23.50;99.90;;;;;;5025427;28;20276;-59
2023/09/05 09:49:28;;;;;;;2.65;2.45;;;23.60;99.90;;;;;;5036199;28;20619;-61
2023/09/05 09:51:55;;;;;;;7.93;4.40;;;23.60;99.90;;;;;;5028222;28;20413;-60
2023/09/05 09:54:36;;;;;;;2.35;2.03;;;23.60;99.90;;;;;;5035039;28;20417;-61
2023/09/05 09:57:06;;;;;;;2.38;2.10;;;23.60;99.90;;;;;;5031555;28;20587;-61
2023/09/05 09:59:35;;;;;;;4.25;3.03;;;23.70;99.90;;;;;;5030066;28;20302;-61
2023/09/05 10:02:08;;;;;;;6.32;3.17;;;23.60;99.90;;;;;;5032483;28;20998;-61
2023/09/05 10:04:37;;;;;;;9.57;5.07;;;23.70;99.90;;;;;;5024229;28;20293;-58
2023/09/05 10:07:06;;;;;;;2.50;2.30;;;23.80;99.90;;;;;;5038089;28;20679;-59
2023/09/05 10:09:35;;;;;;;2.55;2.33;;;23.80;99.90;;;;;;5037526;28;20301;-59
2023/09/05 10:12:02;;;;;;;2.35;2.20;;;23.90;99.90;;;;;;5029103;28;20198;-59
2023/09/05 10:14:32;;;;;;;6.60;3.53;;;23.90;99.90;;;;;;5035551;28;20202;-59
2023/09/05 10:16:58;;;;;;;3.05;2.13;;;23.80;99.90;;;;;;5016719;28;21118;-60
2023/09/05 10:19:26;;;;;;;2.35;2.15;;;24.00;99.90;;;;;;5031325;28;20658;-60
2023/09/05 10:21:54;;;;;;;2.30;2.17;;;24.10;99.90;;;;;;5030056;28;20222;-60
2023/09/05 10:24:20;;;;;;;3.42;2.80;;;24.10;99.90;;;;;;5028746;28;20206;-59
2023/09/05 10:26:47;;;;;;;4.65;2.40;;;24.20;99.50;;;;;;5035936;28;20275;-59
2023/09/05 10:29:33;;;;;;;2.75;2.53;;;24.30;98.80;;;;;;5038721;28;20208;-61
2023/09/05 10:31:58;;;;;;;3.28;2.53;;;24.30;98.50;;;;;;5034882;28;20197;-60
2023/09/05 10:34:50;;;;;;;2.45;2.08;;;24.20;99.90;;;;;;5030857;28;20755;-59
2023/09/05 10:37:21;;;;;;;3.10;2.20;;;24.30;99.30;;;;;;5026182;28;20206;-59
2023/09/05 10:39:48;;;;;;;3.67;2.80;;;24.40;98.80;;;;;;5027800;28;20937;-60
2023/09/05 10:42:15;;;;;;;2.38;2.20;;;24.30;99.90;;;;;;5033824;28;21057;-60
2023/09/05 10:44:47;;;;;;;3.10;2.80;;;24.20;99.90;;;;;;5036977;28;20211;-60
2023/09/05 10:47:26;;;;;;;4.03;2.63;;;24.20;99.90;;;;;;5025145;28;20728;-59
2023/09/05 10:50:06;;;;;;;3.15;1.98;;;24.50;99.90;;;;;;5033592;28;20212;-60
2023/09/05 10:52:33;;;;;;;3.63;2.42;;;24.80;99.90;;;;;;5038322;28;20560;-60
2023/09/05 10:55:19;;;;;;;3.83;2.13;;;25.10;99.50;;;;;;5030854;28;20297;-61
2023/09/05 10:57:50;;;;;;;2.88;2.22;;;25.10;99.10;;;;;;5019439;28;20585;-60
2023/09/05 11:00:23;;;;;;;4.38;2.90;;;25.40;97.90;;;;;;5016118;28;20219;-60
2023/09/05 11:02:49;;;;;;;2.42;2.22;;;25.50;98.80;;;;;;5035928;28;20227;-61
2023/09/05 11:05:19;;;;;;;2.65;2.20;;;25.70;98.70;;;;;;5038151;28;20229;-60
2023/09/05 11:07:50;;;;;;;3.38;2.30;;;25.80;97.50;;;;;;5034877;28;20944;-60
2023/09/05 11:10:38;;;;;;;2.60;1.90;;;25.90;98.30;;;;;;5035935;28;20200;-59
2023/09/05 11:13:10;;;;;;;1.58;1.45;;;26.30;96.10;;;;;;5016219;28;20296;-60
2023/09/05 11:15:37;;;;;;;1.98;1.83;;;26.00;96.30;;;;;;5024771;28;20197;-61
2023/09/05 11:18:05;;;;;;;2.50;2.30;;;26.40;95.50;;;;;;5033827;28;20240;-60
2023/09/05 11:20:43;;;;;;;2.20;2.00;;;26.50;96.70;;;;;;5031567;28;20266;-61
2023/09/05 11:23:21;;;;;;;2.53;2.42;;;26.60;95.60;;;;;;5031018;28;20206;-59
2023/09/05 11:25:48;;;;;;;2.55;2.10;;;27.00;95.70;;;;;;5034969;28;20221;-58
2023/09/05 11:28:15;;;;;;;4.10;1.92;;;27.00;95.80;;;;;;5033191;28;20325;-60
2023/09/05 11:30:44;;;;;;;2.08;1.83;;;27.10;95.80;;;;;;5031381;28;20213;-57
2023/09/05 11:33:13;;;;;;;3.75;2.35;;;27.10;94.70;;;;;;5041585;28;20233;-57
2023/09/05 11:35:40;;;;;;;3.45;2.90;;;27.10;94.50;;;;;;5030499;28;20676;-55
2023/09/05 11:38:09;;;;;;;2.17;1.83;;;27.20;95.70;;;;;;5039663;28;20198;-56
2023/09/05 11:40:35;;;;;;;3.65;2.15;;;26.80;95.00;;;;;;5032433;28;20218;-56
2023/09/05 11:43:06;;;;;;;4.38;3.60;;;27.30;93.90;;;;;;5033679;28;20202;-61
2023/09/05 11:45:34;;;;;;;3.78;1.83;;;27.60;95.10;;;;;;5022468;28;20194;-60
2023/09/05 11:48:02;;;;;;;6.65;2.00;;;27.70;94.60;;;;;;5025081;28;20222;-55
2023/09/05 11:50:28;;;;;;;2.25;2.03;;;27.20;95.10;;;;;;5038053;28;20206;-56
2023/09/05 11:52:54;;;;;;;3.03;2.15;;;26.90;95.90;;;;;;5021481;28;20237;-59
2023/09/05 11:55:21;;;;;;;2.80;2.60;;;27.50;93.90;;;;;;5032986;28;20546;-58
2023/09/05 11:57:50;;;;;;;2.20;1.95;;;26.90;94.90;;;;;;5035629;28;20203;-56
2023/09/05 12:00:17;;;;;;;3.40;2.05;;;27.80;93.00;;;;;;5017500;28;20233;-56
2023/09/05 12:02:43;;;;;;;1.50;1.40;;;28.20;93.00;;;;;;5016889;28;20266;-56
2023/09/05 12:05:10;;;;;;;1.75;1.65;;;29.10;91.00;;;;;;5034583;28;20195;-56
2023/09/05 12:07:36;;;;;;;1.77;1.67;;;29.50;90.20;;;;;;5027463;28;20478;-57
2023/09/05 12:10:01;;;;;;;4.35;1.80;;;29.10;90.50;;;;;;5029643;28;20293;-57
2023/09/05 12:12:27;;;;;;;2.80;1.80;;;28.20;92.30;;;;;;5032780;28;20206;-57
2023/09/05 12:14:55;;;;;;;3.05;2.00;;;27.80;92.20;;;;;;5034304;28;20305;-57
2023/09/05 12:17:24;;;;;;;3.45;2.17;;;28.20;92.50;;;;;;5034080;28;20206;-61
2023/09/05 12:19:52;;;;;;;2.70;1.58;;;27.60;92.10;;;;;;5036494;28;20210;-58
2023/09/05 12:22:29;;;;;;;2.83;2.17;;;27.50;93.10;;;;;;5016251;28;20914;-58
2023/09/05 12:25:11;;;;;;;1.85;1.75;;;28.00;92.30;;;;;;5029886;28;20209;-59
2023/09/05 12:27:38;;;;;;;1.80;1.70;;;28.20;92.90;;;;;;5037398;28;20592;-59
2023/09/05 12:30:05;;;;;;;2.85;1.80;;;28.70;89.40;;;;;;5031373;28;20195;-59
2023/09/05 12:32:31;;;;;;;3.38;1.88;;;28.50;91.50;;;;;;5027294;28;20286;-59
2023/09/05 12:34:56;;;;;;;2.17;1.73;;;29.20;90.50;;;;;;5034740;28;20302;-59
2023/09/05 12:37:22;;;;;;;3.42;1.50;;;28.30;91.50;;;;;;5031063;28;20281;-58
2023/09/05 12:39:50;;;;;;;1.50;1.40;;;28.00;92.40;;;;;;5035474;28;20329;-58
2023/09/05 12:42:16;;;;;;;3.08;1.70;;;28.70;91.30;;;;;;5042667;28;20207;-58
2023/09/05 12:44:42;;;;;;;4.22;1.63;;;29.40;89.80;;;;;;5035587;28;20199;-59
2023/09/05 12:47:08;;;;;;;1.40;1.30;;;28.50;91.40;;;;;;5026077;28;20808;-59